Time;durP1;ratioP1;P1;durP2;ratioP2;P2;SDS_P1;SDS_P2;PMS_P1;PMS_P2;Temp;Humidity;BMP_temperature;BMP_pressure;BME280_temperature;BME280_humidity;BME280_pressure;Samples;Min_cycle;Max_cycle;Signal;HPM_P1;HPM_P2
2023/08/07 00:02:16;;;;;;;2.45;1.20;;;;;;;19.21;55.69;94442.56;5084314;28;20024;-85
2023/08/07 00:04:41;;;;;;;1.73;1.13;;;;;;;19.20;56.48;94446.63;5072999;28;20029;-85
2023/08/07 00:07:07;;;;;;;3.15;1.05;;;;;;;19.14;56.64;94443.06;5085458;28;20020;-85
2023/08/07 00:09:32;;;;;;;1.60;1.10;;;;;;;19.11;56.65;94450.44;5084594;28;20053;-84
2023/08/07 00:11:58;;;;;;;1.83;1.10;;;;;;;19.08;56.65;94448.63;5086235;28;20062;-84
2023/08/07 00:14:23;;;;;;;2.72;1.40;;;;;;;19.00;57.09;94440.03;5066554;28;20032;-84
2023/08/07 00:16:48;;;;;;;1.83;1.00;;;;;;;19.05;56.70;94449.66;5085968;28;20030;-84
2023/08/07 00:19:14;;;;;;;1.42;1.10;;;;;;;19.05;56.81;94452.44;5085132;28;20402;-84
2023/08/07 00:21:39;;;;;;;2.50;1.02;;;;;;;19.00;57.08;94453.94;5083631;28;20062;-85
2023/08/07 00:24:05;;;;;;;3.95;1.35;;;;;;;18.99;56.98;94460.78;5084658;28;20024;-85
2023/08/07 00:26:32;;;;;;;1.55;1.00;;;;;;;18.97;57.14;94459.75;5083533;28;20421;-85
2023/08/07 00:28:57;;;;;;;2.17;1.33;;;;;;;18.96;56.58;94461.03;5086160;28;20450;-84
2023/08/07 00:31:23;;;;;;;1.63;1.20;;;;;;;18.89;56.67;94453.94;5083132;28;20031;-85
2023/08/07 00:33:51;;;;;;;2.53;1.02;;;;;;;18.91;56.64;94462.53;5085582;28;20028;-84
2023/08/07 00:36:17;;;;;;;2.80;1.08;;;;;;;18.83;56.83;94458.72;5084878;28;20028;-84
2023/08/07 00:38:42;;;;;;;2.65;1.35;;;;;;;18.82;56.92;94457.22;5085160;28;20024;-84
2023/08/07 00:41:09;;;;;;;1.95;1.27;;;;;;;18.80;57.13;94456.94;5086652;28;20091;-85
2023/08/07 00:43:35;;;;;;;2.38;1.30;;;;;;;18.76;57.21;94448.84;5088075;28;20039;-85
2023/08/07 00:46:00;;;;;;;3.28;1.33;;;;;;;18.73;57.17;94454.63;5089568;28;20039;-85
2023/08/07 00:48:26;;;;;;;2.65;1.13;;;;;;;18.72;57.32;94448.31;5086680;28;20091;-84
2023/08/07 00:50:52;;;;;;;3.15;1.40;;;;;;;18.69;57.28;94448.53;5089348;28;20027;-84
2023/08/07 00:53:17;;;;;;;2.33;1.38;;;;;;;18.62;57.18;94460.91;5088578;28;20081;-85
2023/08/07 00:55:43;;;;;;;4.90;1.70;;;;;;;18.58;57.31;94466.72;5087638;28;20050;-85
2023/08/07 00:58:08;;;;;;;1.73;1.48;;;;;;;18.57;57.16;94467.97;5087177;28;20435;-85
2023/08/07 01:00:34;;;;;;;2.05;1.52;;;;;;;18.56;57.34;94471.25;5086883;28;20383;-84
2023/08/07 01:03:00;;;;;;;1.90;1.50;;;;;;;18.49;57.66;94474.53;5087798;28;20035;-84
2023/08/07 01:05:25;;;;;;;2.35;1.75;;;;;;;18.45;57.70;94471.97;5085876;28;20039;-84
2023/08/07 01:07:54;;;;;;;2.00;1.60;;;;;;;18.41;57.59;94477.03;5071073;28;20032;-84
2023/08/07 01:10:40;;;;;;;2.28;1.80;;;;;;;18.39;57.85;94487.88;5093867;28;20038;-85
2023/08/07 01:13:24;;;;;;;2.47;1.70;;;;;;;18.36;57.64;94488.91;5088265;28;20508;-84
2023/08/07 01:15:52;;;;;;;2.65;2.00;;;;;;;18.31;57.92;94492.41;5087475;28;20032;-85
2023/08/07 01:18:18;;;;;;;2.72;2.10;;;;;;;18.31;58.09;94493.16;5086200;28;20107;-84
2023/08/07 01:20:43;;;;;;;5.47;2.25;;;;;;;18.31;58.19;94487.59;5088624;28;20042;-85
2023/08/07 01:23:08;;;;;;;2.78;2.00;;;;;;;18.30;57.98;94488.88;5087081;28;20039;-84
2023/08/07 01:25:37;;;;;;;2.47;2.20;;;;;;;18.23;57.83;94494.88;5087078;28;20035;-84
2023/08/07 01:28:30;;;;;;;2.72;2.13;;;;;;;18.24;57.90;94492.88;5086302;28;20032;-84
2023/08/07 01:31:00;;;;;;;2.85;1.98;;;;;;;18.21;57.69;94496.66;5085996;28;20028;-84
2023/08/07 01:33:32;;;;;;;5.80;2.50;;;;;;;18.16;58.04;94487.00;5087067;28;20016;-84
2023/08/07 01:36:03;;;;;;;3.60;2.10;;;;;;;18.15;57.92;94491.06;5085703;28;20027;-84
2023/08/07 01:38:29;;;;;;;3.10;2.35;;;;;;;18.14;58.03;94483.97;5086902;28;20028;-85
2023/08/07 01:40:56;;;;;;;2.50;2.25;;;;;;;18.13;58.14;94488.00;5086051;28;20031;-84
2023/08/07 01:43:21;;;;;;;3.03;2.40;;;;;;;18.18;58.04;94494.84;5086218;28;20141;-85
2023/08/07 01:45:46;;;;;;;2.88;2.20;;;;;;;18.13;57.89;94485.22;5086538;28;20106;-84
2023/08/07 01:48:12;;;;;;;2.60;2.40;;;;;;;18.16;58.09;94487.00;5086874;28;20024;-84
2023/08/07 01:50:39;;;;;;;3.30;2.30;;;;;;;18.06;58.26;94488.47;5086957;28;20478;-85
2023/08/07 01:53:04;;;;;;;2.95;2.45;;;;;;;18.10;58.12;94497.34;5068282;28;20478;-85
2023/08/07 01:55:30;;;;;;;2.83;2.53;;;;;;;18.08;58.45;94491.53;5086600;28;20047;-85
2023/08/07 01:57:55;;;;;;;2.88;2.15;;;;;;;18.00;58.51;94487.66;5086925;28;20032;-85
2023/08/07 02:00:21;;;;;;;2.58;2.38;;;;;;;18.00;58.67;94493.22;5085710;28;20012;-85
2023/08/07 02:02:46;;;;;;;3.00;2.70;;;;;;;17.99;58.76;94484.13;5069042;28;20117;-85
2023/08/07 02:05:13;;;;;;;2.50;2.20;;;;;;;17.93;58.69;94488.88;5085503;28;20063;-85
2023/08/07 02:07:38;;;;;;;2.70;2.40;;;;;;;17.91;59.01;94493.44;5088025;28;20016;-85
2023/08/07 02:10:04;;;;;;;3.40;2.38;;;;;;;17.93;59.11;94497.22;5086091;28;20036;-85
2023/08/07 02:12:32;;;;;;;2.90;2.60;;;;;;;17.87;59.30;94496.44;5092490;28;20466;-85
2023/08/07 02:14:58;;;;;;;4.00;2.63;;;;;;;17.86;58.96;94500.47;5090790;28;20027;-85
2023/08/07 02:17:25;;;;;;;3.38;2.25;;;;;;;17.72;59.32;94493.81;5087165;28;20031;-86
2023/08/07 02:19:50;;;;;;;3.22;2.92;;;;;;;17.81;59.60;94517.13;5085510;28;20107;-85
2023/08/07 02:22:16;;;;;;;3.28;2.97;;;;;;;17.76;59.47;94507.47;5085290;28;20119;-85
2023/08/07 02:24:41;;;;;;;3.50;2.50;;;;;;;17.76;59.80;94518.59;5086353;28;20063;-85
2023/08/07 02:27:07;;;;;;;4.15;2.80;;;;;;;17.73;59.51;94522.38;5086145;28;20020;-85
2023/08/07 02:29:34;;;;;;;3.08;2.70;;;;;;;17.75;59.35;94520.63;5087603;28;20028;-85
2023/08/07 02:32:01;;;;;;;3.72;2.40;;;;;;;17.75;59.53;94517.06;5068109;28;20474;-85
2023/08/07 02:34:27;;;;;;;2.78;2.58;;;;;;;17.68;60.04;94517.50;5085531;28;20081;-84
2023/08/07 02:36:52;;;;;;;3.72;2.70;;;;;;;17.67;60.25;94519.53;5086447;28;20486;-85
2023/08/07 02:39:17;;;;;;;3.17;2.88;;;;;;;17.70;60.01;94521.31;5086732;28;20551;-85
2023/08/07 02:41:43;;;;;;;4.25;3.10;;;;;;;17.73;59.88;94520.34;5087085;28;20018;-85
2023/08/07 02:44:08;;;;;;;3.17;2.83;;;;;;;17.75;60.15;94520.63;5084809;28;20035;-85
2023/08/07 02:46:35;;;;;;;3.55;2.95;;;;;;;17.70;59.73;94520.53;5086573;28;20114;-86
2023/08/07 02:49:01;;;;;;;3.40;3.10;;;;;;;17.67;60.40;94524.31;5084446;28;20127;-85
2023/08/07 02:51:26;;;;;;;4.18;2.88;;;;;;;17.72;60.19;94527.19;5085542;28;20115;-85
2023/08/07 02:53:52;;;;;;;3.30;3.00;;;;;;;17.68;59.92;94515.47;5085704;28;20024;-85
2023/08/07 02:56:17;;;;;;;3.08;2.78;;;;;;;17.75;59.80;94519.84;5084972;28;20020;-85
2023/08/07 02:58:42;;;;;;;3.10;2.80;;;;;;;17.73;60.04;94525.16;5085964;28;20036;-85
2023/08/07 03:01:08;;;;;;;3.30;2.60;;;;;;;17.76;59.81;94527.69;5084596;28;20016;-85
2023/08/07 03:03:33;;;;;;;3.08;2.78;;;;;;;17.77;59.40;94529.22;5084807;28;20338;-85
2023/08/07 03:05:59;;;;;;;3.45;2.90;;;;;;;17.73;59.75;94533.50;5085468;28;20035;-84
2023/08/07 03:08:24;;;;;;;2.97;2.67;;;;;;;17.73;59.71;94541.84;5086595;28;20036;-85
2023/08/07 03:10:55;;;;;;;3.53;3.00;;;;;;;17.70;59.55;94540.00;5067278;28;20028;-85
2023/08/07 03:13:21;;;;;;;2.83;2.55;;;;;;;17.71;59.39;94541.53;5085292;28;20372;-85
2023/08/07 03:15:49;;;;;;;3.30;3.00;;;;;;;17.67;59.45;94549.34;5089141;28;20045;-84
2023/08/07 03:18:14;;;;;;;3.05;2.60;;;;;;;17.70;59.23;94553.91;5093091;28;20027;-84
2023/08/07 03:20:40;;;;;;;3.97;2.70;;;;;;;17.66;59.41;94547.78;5088166;28;20016;-85
2023/08/07 03:23:05;;;;;;;3.28;2.92;;;;;;;17.58;59.19;94553.03;5083955;28;20019;-85
2023/08/07 03:25:30;;;;;;;3.30;2.78;;;;;;;17.59;59.10;94546.22;5085570;28;20024;-85
2023/08/07 03:27:56;;;;;;;3.08;2.55;;;;;;;17.61;59.04;94552.06;5085180;28;20020;-84
2023/08/07 03:30:21;;;;;;;3.47;3.17;;;;;;;17.57;59.04;94554.31;5086108;28;20024;-85
2023/08/07 03:32:47;;;;;;;2.88;2.55;;;;;;;17.53;58.87;94551.72;5084441;28;20017;-85
2023/08/07 03:35:12;;;;;;;3.13;2.50;;;;;;;17.52;58.96;94557.78;5085694;28;20024;-85
2023/08/07 03:37:37;;;;;;;3.50;3.20;;;;;;;17.53;59.02;94567.66;5086068;28;20045;-84
2023/08/07 03:40:03;;;;;;;3.25;2.72;;;;;;;17.50;59.36;94572.19;5084322;28;20031;-85
2023/08/07 03:42:28;;;;;;;4.25;3.28;;;;;;;17.52;59.12;94580.78;5084710;28;20031;-85
2023/08/07 03:44:54;;;;;;;3.78;2.88;;;;;;;17.48;58.89;94573.91;5083608;28;20452;-85
2023/08/07 03:47:19;;;;;;;3.42;2.58;;;;;;;17.46;58.87;94582.75;5084844;28;20028;-85
2023/08/07 03:49:45;;;;;;;3.30;2.80;;;;;;;17.43;59.05;94589.28;5066906;28;20024;-85
2023/08/07 03:52:10;;;;;;;3.63;2.63;;;;;;;17.44;59.04;94585.25;5085965;28;20028;-86
2023/08/07 03:54:36;;;;;;;4.35;3.10;;;;;;;17.40;59.35;94590.25;5084035;28;20378;-84
2023/08/07 03:57:01;;;;;;;3.33;3.00;;;;;;;17.45;58.72;94591.56;5085755;28;20055;-86
2023/08/07 03:59:27;;;;;;;3.95;3.42;;;;;;;17.45;59.10;94586.03;5085799;28;20024;-85
2023/08/07 04:01:52;;;;;;;4.35;2.92;;;;;;;17.43;59.08;94589.28;5085116;28;20115;-85
2023/08/07 04:04:18;;;;;;;2.55;2.33;;;;;;;17.46;59.15;94593.09;5084808;28;20024;-85
2023/08/07 04:06:43;;;;;;;2.65;2.30;;;;;;;17.47;58.79;94598.16;5084874;28;20494;-85
2023/08/07 04:09:10;;;;;;;3.17;2.45;;;;;;;17.46;59.07;94612.56;5085675;28;20661;-85
2023/08/07 04:11:36;;;;;;;3.83;2.60;;;;;;;17.39;59.21;94605.41;5084973;28;20024;-85
2023/08/07 04:14:01;;;;;;;4.45;2.80;;;;;;;17.41;59.12;94610.47;5085699;28;20090;-85
2023/08/07 04:16:27;;;;;;;3.55;2.53;;;;;;;17.41;59.36;94607.69;5087403;28;20578;-86
2023/08/07 04:18:52;;;;;;;4.40;2.50;;;;;;;17.44;59.52;94609.50;5089787;28;20020;-85
2023/08/07 04:21:17;;;;;;;4.07;2.83;;;;;;;17.43;59.47;94614.31;5093267;28;20031;-85
2023/08/07 04:23:43;;;;;;;3.17;2.47;;;;;;;17.39;59.16;94610.97;5087021;28;20395;-86
2023/08/07 04:26:08;;;;;;;5.05;2.47;;;;;;;17.45;59.37;94611.03;5087972;28;20043;-85
2023/08/07 04:28:34;;;;;;;3.08;2.40;;;;;;;17.42;58.97;94614.78;5087042;28;20081;-85
2023/08/07 04:30:59;;;;;;;3.03;2.58;;;;;;;17.43;58.88;94619.88;5089392;28;20052;-84
2023/08/07 04:33:25;;;;;;;4.03;2.47;;;;;;;17.46;59.18;94629.97;5086993;28;20028;-85
2023/08/07 04:35:50;;;;;;;4.35;2.08;;;;;;;17.47;58.92;94625.19;5088993;28;20026;-85
2023/08/07 04:38:17;;;;;;;2.95;2.47;;;;;;;17.42;59.21;94632.22;5088097;28;20024;-85
2023/08/07 04:40:46;;;;;;;2.63;2.30;;;;;;;17.42;59.35;94623.09;5086894;28;20020;-85
2023/08/07 04:43:12;;;;;;;3.53;2.80;;;;;;;17.47;59.27;94625.19;5087992;28;20036;-85
2023/08/07 04:45:39;;;;;;;3.53;2.70;;;;;;;17.49;59.05;94623.47;5088146;28;20111;-86
2023/08/07 04:48:05;;;;;;;3.30;2.67;;;;;;;17.51;58.68;94626.50;5089219;28;20107;-85
2023/08/07 04:50:30;;;;;;;3.33;2.92;;;;;;;17.52;58.86;94628.03;5086770;28;20111;-85
2023/08/07 04:52:55;;;;;;;2.80;2.28;;;;;;;17.55;58.94;94631.06;5088851;28;20105;-85
2023/08/07 04:55:21;;;;;;;2.55;2.22;;;;;;;17.57;58.83;94623.03;5088493;28;20027;-85
2023/08/07 04:57:47;;;;;;;4.30;2.80;;;;;;;17.56;59.04;94624.28;5086887;28;20067;-86
2023/08/07 05:00:13;;;;;;;4.40;2.65;;;;;;;17.63;58.76;94626.63;5088895;28;20050;-86
2023/08/07 05:02:39;;;;;;;3.55;2.53;;;;;;;17.66;58.87;94618.06;5088079;28;20064;-85
2023/08/07 05:05:05;;;;;;;2.47;2.28;;;;;;;17.70;58.49;94615.06;5088972;28;20516;-85
2023/08/07 05:07:33;;;;;;;4.07;3.03;;;;;;;17.68;58.52;94618.34;5086497;28;20023;-85
2023/08/07 05:09:59;;;;;;;2.83;2.53;;;;;;;17.72;58.64;94618.91;5086985;28;20624;-85
2023/08/07 05:12:25;;;;;;;4.05;2.80;;;;;;;17.74;58.91;94610.06;5087888;28;20016;-86
2023/08/07 05:14:50;;;;;;;3.00;2.67;;;;;;;17.79;58.40;94617.69;5086756;28;20020;-86
2023/08/07 05:17:15;;;;;;;3.92;2.30;;;;;;;17.81;58.29;94609.63;5088571;28;20016;-86
2023/08/07 05:19:41;;;;;;;4.55;2.67;;;;;;;17.81;58.25;94611.66;5087480;28;20739;-86
2023/08/07 05:22:06;;;;;;;3.10;2.50;;;;;;;17.85;58.49;94609.41;5088152;28;20032;-86
2023/08/07 05:24:38;;;;;;;2.97;2.67;;;;;;;17.90;58.03;94609.47;5091085;28;20020;-86
2023/08/07 05:27:05;;;;;;;3.08;2.65;;;;;;;17.87;58.21;94606.91;5088406;28;20024;-85
2023/08/07 05:29:31;;;;;;;5.30;3.10;;;;;;;17.85;58.60;94617.75;5087719;28;20490;-85
2023/08/07 05:31:56;;;;;;;3.17;2.55;;;;;;;17.91;58.29;94616.53;5086732;28;20017;-85
2023/08/07 05:34:21;;;;;;;2.88;2.60;;;;;;;17.95;58.10;94616.31;5086339;28;20043;-85
2023/08/07 05:36:47;;;;;;;3.05;2.38;;;;;;;17.98;57.95;94615.34;5086014;28;20107;-86
2023/08/07 05:39:13;;;;;;;5.93;3.00;;;;;;;18.02;57.88;94622.19;5088196;28;20055;-86
2023/08/07 05:41:39;;;;;;;3.20;2.60;;;;;;;18.00;57.49;94621.91;5085705;28;20062;-85
2023/08/07 05:44:05;;;;;;;2.95;2.65;;;;;;;17.98;58.06;94624.44;5069810;28;20052;-86
2023/08/07 05:46:30;;;;;;;3.47;2.88;;;;;;;18.03;57.95;94618.16;5086860;28;20033;-86
2023/08/07 05:48:56;;;;;;;4.43;2.65;;;;;;;18.03;57.38;94626.50;5086395;28;20028;-85
2023/08/07 05:51:21;;;;;;;3.45;2.78;;;;;;;18.08;57.44;94635.41;5085960;28;20036;-85
2023/08/07 05:53:47;;;;;;;5.30;2.65;;;;;;;18.10;56.95;94619.72;5087128;28;20467;-86
2023/08/07 05:56:12;;;;;;;3.88;2.83;;;;;;;18.14;57.14;94622.28;5086571;28;20020;-86
2023/08/07 05:58:37;;;;;;;8.85;3.13;;;;;;;18.19;57.08;94621.56;5086605;28;20035;-86
2023/08/07 06:01:03;;;;;;;3.33;2.80;;;;;;;18.26;57.10;94632.25;5069526;28;20036;-86
2023/08/07 06:03:28;;;;;;;2.78;2.40;;;;;;;18.28;56.36;94619.34;5085416;28;20473;-85
2023/08/07 06:05:54;;;;;;;3.40;2.65;;;;;;;18.30;56.41;94616.84;5087422;28;20483;-85
2023/08/07 06:08:19;;;;;;;4.97;2.58;;;;;;;18.35;56.32;94623.72;5086588;28;20093;-85
2023/08/07 06:10:45;;;;;;;2.95;2.65;;;;;;;18.40;55.58;94622.22;5087273;28;20505;-86
2023/08/07 06:13:10;;;;;;;4.80;2.05;;;;;;;18.37;55.62;94615.63;5087324;28;20487;-86
2023/08/07 06:15:36;;;;;;;3.28;2.53;;;;;;;18.34;55.81;94615.84;5086305;28;20028;-86
2023/08/07 06:18:01;;;;;;;3.38;2.40;;;;;;;18.38;55.92;94608.81;5087805;28;20505;-86
2023/08/07 06:20:27;;;;;;;3.00;2.38;;;;;;;18.49;55.65;94608.88;5084406;28;20039;-86
2023/08/07 06:22:52;;;;;;;2.90;2.00;;;;;;;18.53;55.71;94608.66;5085727;28;20028;-85
2023/08/07 06:25:19;;;;;;;3.67;2.70;;;;;;;18.57;55.48;94603.59;5085491;28;20036;-85
2023/08/07 06:27:44;;;;;;;3.13;2.50;;;;;;;18.64;55.40;94602.38;5099464;28;20038;-86
2023/08/07 06:30:11;;;;;;;3.35;2.55;;;;;;;18.64;55.01;94594.81;5087969;28;20478;-86
2023/08/07 06:32:36;;;;;;;4.13;2.63;;;;;;;18.69;55.04;94596.09;5087482;28;20020;-87
2023/08/07 06:35:03;;;;;;;2.90;2.00;;;;;;;18.75;54.38;94611.59;5087648;28;20081;-86
2023/08/07 06:37:28;;;;;;;3.17;2.33;;;;;;;18.76;54.51;94612.34;5084263;28;20047;-86
2023/08/07 06:39:53;;;;;;;5.22;2.10;;;;;;;18.82;54.51;94604.78;5086624;28;20056;-86
2023/08/07 06:42:19;;;;;;;4.38;2.60;;;;;;;18.87;54.34;94611.63;5084570;28;20023;-86
2023/08/07 06:44:44;;;;;;;3.53;2.10;;;;;;;18.96;53.61;94609.41;5090096;28;20050;-85
2023/08/07 06:47:10;;;;;;;3.80;2.30;;;;;;;19.06;52.59;94627.44;5086494;28;20406;-87
2023/08/07 06:49:36;;;;;;;2.30;2.10;;;;;;;19.13;52.00;94623.41;5086806;28;20046;-85
2023/08/07 06:52:02;;;;;;;4.88;2.53;;;;;;;19.15;52.24;94615.28;5087849;28;20039;-86
2023/08/07 06:54:27;;;;;;;2.40;1.60;;;;;;;19.22;51.42;94619.66;5085847;28;20032;-86
2023/08/07 06:56:53;;;;;;;5.43;2.03;;;;;;;19.23;50.54;94618.38;5087301;28;20077;-85
2023/08/07 06:59:18;;;;;;;3.25;2.45;;;;;;;19.31;50.38;94619.41;5084092;28;20375;-84
2023/08/07 07:01:44;;;;;;;3.03;2.22;;;;;;;19.35;49.95;94606.00;5085358;28;20032;-84
2023/08/07 07:04:09;;;;;;;2.78;1.55;;;;;;;19.44;48.63;94614.16;5085738;28;20069;-84
2023/08/07 07:06:34;;;;;;;2.65;1.83;;;;;;;19.47;48.79;94607.56;5086418;28;20028;-84
2023/08/07 07:09:00;;;;;;;2.65;1.70;;;;;;;19.54;48.48;94623.78;5086481;28;20462;-84
2023/08/07 07:11:25;;;;;;;3.30;2.08;;;;;;;19.58;48.24;94624.34;5084223;28;20460;-85
2023/08/07 07:13:52;;;;;;;3.35;2.17;;;;;;;19.66;48.17;94621.03;5086830;28;20032;-85
2023/08/07 07:16:18;;;;;;;2.28;1.35;;;;;;;19.64;48.88;94610.41;5083799;28;20020;-85
2023/08/07 07:18:43;;;;;;;3.20;2.10;;;;;;;19.69;48.41;94612.44;5085432;28;20031;-86
2023/08/07 07:21:09;;;;;;;3.53;2.00;;;;;;;19.80;47.84;94609.66;5085499;28;20028;-84
2023/08/07 07:23:34;;;;;;;3.00;2.40;;;;;;;19.89;47.75;94603.06;5067839;28;20028;-85
2023/08/07 07:25:59;;;;;;;2.95;2.05;;;;;;;19.93;48.04;94611.19;5086120;28;20174;-86
2023/08/07 07:28:25;;;;;;;2.63;1.83;;;;;;;20.08;47.68;94608.94;5086132;28;20031;-85
2023/08/07 07:30:50;;;;;;;2.88;1.85;;;;;;;20.05;47.65;94609.94;5096320;28;20422;-85
2023/08/07 07:33:16;;;;;;;2.75;1.70;;;;;;;20.10;47.85;94607.16;5086240;28;20503;-85
2023/08/07 07:35:42;;;;;;;3.85;2.00;;;;;;;20.21;47.25;94597.25;5085271;28;20111;-85
2023/08/07 07:38:07;;;;;;;2.42;1.73;;;;;;;20.23;47.50;94606.63;5084109;28;20024;-85
2023/08/07 07:40:34;;;;;;;2.42;1.77;;;;;;;20.33;46.82;94602.31;5085969;28;20029;-85
2023/08/07 07:42:59;;;;;;;3.22;1.63;;;;;;;20.36;46.67;94595.72;5084114;28;20025;-84
2023/08/07 07:45:25;;;;;;;2.20;1.50;;;;;;;20.48;44.76;94610.47;5067501;28;20035;-85
2023/08/07 07:47:50;;;;;;;3.72;1.77;;;;;;;20.56;44.05;94607.91;5085886;28;20177;-86
2023/08/07 07:50:16;;;;;;;1.80;1.50;;;;;;;20.62;44.03;94614.22;5086975;28;20031;-86
2023/08/07 07:52:41;;;;;;;2.67;2.35;;;;;;;20.73;42.98;94611.41;5090706;28;20118;-86
2023/08/07 07:55:09;;;;;;;2.70;2.20;;;;;;;20.79;43.28;94617.75;5087815;28;20028;-86
2023/08/07 07:57:34;;;;;;;5.78;2.90;;;;;;;20.82;43.42;94604.81;5090320;28;20095;-86
2023/08/07 08:00:00;;;;;;;3.33;2.42;;;;;;;20.87;43.31;94599.19;5089381;28;20028;-86
2023/08/07 08:02:26;;;;;;;4.93;2.08;;;;;;;21.00;43.35;94598.66;5071838;28;20036;-85
2023/08/07 08:04:52;;;;;;;2.38;1.60;;;;;;;21.06;43.32;94596.59;5089503;28;20028;-85
2023/08/07 08:07:18;;;;;;;3.08;1.83;;;;;;;21.15;43.49;94595.53;5098364;28;20111;-86
2023/08/07 08:09:44;;;;;;;3.83;1.80;;;;;;;21.23;43.39;94593.72;5078614;28;20097;-86
2023/08/07 08:12:12;;;;;;;3.58;1.42;;;;;;;21.30;43.14;94593.19;5089838;28;20492;-86
2023/08/07 08:14:37;;;;;;;1.85;1.33;;;;;;;21.39;43.47;94595.72;5090323;28;20093;-86
2023/08/07 08:17:03;;;;;;;2.30;1.45;;;;;;;21.46;43.23;94595.16;5089059;28;20028;-87
2023/08/07 08:19:28;;;;;;;2.35;1.40;;;;;;;21.56;42.28;94601.19;5090465;28;20116;-86
2023/08/07 08:21:53;;;;;;;1.70;1.17;;;;;;;21.65;42.18;94594.53;5089064;28;20023;-86
2023/08/07 08:24:19;;;;;;;1.50;1.30;;;;;;;21.70;41.64;94574.91;5090521;28;20434;-86
2023/08/07 08:26:44;;;;;;;2.13;1.30;;;;;;;21.85;41.36;94582.97;5090065;28;20028;-86
2023/08/07 08:29:14;;;;;;;2.05;1.10;;;;;;;21.90;41.54;94586.97;5089349;28;20069;-86
2023/08/07 08:31:39;;;;;;;1.70;0.90;;;;;;;21.99;40.87;94583.88;5089955;28;20028;-86
2023/08/07 08:34:05;;;;;;;1.83;1.20;;;;;;;22.08;41.09;94577.97;5097332;28;20111;-86
2023/08/07 08:36:30;;;;;;;2.22;1.30;;;;;;;22.23;40.81;94577.59;5092273;28;20016;-86
2023/08/07 08:38:56;;;;;;;2.92;1.55;;;;;;;22.30;40.87;94571.41;5095220;28;20162;-86
2023/08/07 08:41:21;;;;;;;1.90;1.20;;;;;;;22.47;39.83;94572.00;5077713;28;20027;-87
2023/08/07 08:43:47;;;;;;;3.20;1.25;;;;;;;22.60;39.23;94568.59;5096548;28;20043;-86
2023/08/07 08:46:16;;;;;;;6.20;1.75;;;;;;;22.65;39.25;94570.59;5091200;28;20118;-86
2023/08/07 08:48:47;;;;;;;1.85;1.30;;;;;;;22.72;39.30;94569.25;5072606;28;20024;-86
2023/08/07 08:51:13;;;;;;;2.10;1.58;;;;;;;22.86;39.26;94573.66;5087710;28;20028;-86
2023/08/07 08:53:39;;;;;;;2.95;1.60;;;;;;;23.00;39.12;94563.34;5071376;28;20031;-86
2023/08/07 08:56:06;;;;;;;2.55;1.85;;;;;;;23.11;39.13;94570.84;5086959;28;20031;-86
2023/08/07 08:58:31;;;;;;;1.55;1.30;;;;;;;23.22;39.37;94565.09;5087467;28;20106;-82
2023/08/07 09:00:57;;;;;;;1.70;1.40;;;;;;;23.40;38.70;94563.56;5087807;28;20579;-81
2023/08/07 09:03:24;;;;;;;1.77;1.20;;;;;;;23.50;38.11;94567.53;5069330;28;20490;-84
2023/08/07 09:05:54;;;;;;;1.77;1.25;;;;;;;23.64;38.15;94569.16;5088693;28;20028;-83
2023/08/07 09:08:21;;;;;;;2.78;1.35;;;;;;;23.80;37.64;94581.44;5087026;28;20526;-81
2023/08/07 09:10:46;;;;;;;1.95;1.30;;;;;;;23.93;37.74;94570.25;5087533;28;20390;-83
2023/08/07 09:13:15;;;;;;;3.90;2.40;;;;;;;24.10;37.21;94564.38;5087602;28;20544;-84
2023/08/07 09:15:41;;;;;;;2.72;2.20;;;;;;;24.23;37.12;94570.03;5088478;28;20036;-83
2023/08/07 09:18:10;;;;;;;5.70;2.10;;;;;;;24.40;36.95;94566.94;5069468;28;20078;-81
2023/08/07 09:20:39;;;;;;;4.47;1.42;;;;;;;24.54;36.41;94553.66;5086466;28;20411;-81
2023/08/07 09:23:05;;;;;;;2.55;1.45;;;;;;;24.70;36.24;94541.38;5087038;28;20514;-81
2023/08/07 09:25:31;;;;;;;2.42;1.38;;;;;;;24.90;35.79;94548.41;5085734;28;20032;-82
2023/08/07 09:27:57;;;;;;;2.83;1.52;;;;;;;25.03;35.57;94554.03;5070410;28;20020;-84
2023/08/07 09:30:28;;;;;;;2.50;1.80;;;;;;;25.19;35.89;94549.38;5085594;28;20028;-85
2023/08/07 09:32:54;;;;;;;2.17;1.60;;;;;;;25.40;35.01;94546.63;5088390;28;20028;-85
2023/08/07 09:35:23;;;;;;;2.38;1.63;;;;;;;25.61;34.34;94558.69;5087679;28;20024;-84
2023/08/07 09:37:48;;;;;;;2.97;1.10;;;;;;;25.84;33.55;94561.03;5075013;28;20054;-84
2023/08/07 09:40:15;;;;;;;2.28;1.20;;;;;;;26.02;32.71;94553.72;5088490;28;20424;-85
2023/08/07 09:42:41;;;;;;;3.67;2.22;;;;;;;26.23;31.99;94539.63;5087011;28;20169;-85
2023/08/07 09:45:23;;;;;;;3.53;1.10;;;;;;;26.43;31.05;94547.34;5087209;28;20103;-85
2023/08/07 09:48:03;;;;;;;1.83;1.23;;;;;;;26.58;31.46;94550.28;5089135;28;20028;-85
2023/08/07 09:50:29;;;;;;;2.13;1.55;;;;;;;26.76;31.42;94533.66;5088629;28;20019;-85
2023/08/07 09:52:55;;;;;;;1.80;1.30;;;;;;;26.99;31.11;94534.56;5087567;28;20036;-85
2023/08/07 09:55:21;;;;;;;2.45;1.65;;;;;;;27.06;31.32;94527.44;5085695;28;20075;-85
2023/08/07 09:57:48;;;;;;;2.75;1.85;;;;;;;27.35;30.49;94542.28;5086607;28;20035;-86
2023/08/07 10:00:16;;;;;;;4.55;3.45;;;;;;;27.52;30.28;94537.66;5085144;28;20100;-85
2023/08/07 10:02:45;;;;;;;2.70;1.80;;;;;;;27.67;29.60;94534.13;5088052;28;20086;-86
2023/08/07 10:05:10;;;;;;;2.47;1.27;;;;;;;27.87;29.91;94540.22;5086790;28;20111;-85
2023/08/07 10:07:39;;;;;;;4.38;1.60;;;;;;;28.01;29.43;94538.75;5085866;28;20565;-85
2023/08/07 10:10:06;;;;;;;3.72;1.92;;;;;;;28.19;29.26;94540.47;5068553;28;20131;-86
2023/08/07 10:12:32;;;;;;;2.58;1.55;;;;;;;28.31;29.03;94552.16;5085361;28;20067;-85
2023/08/07 10:15:00;;;;;;;3.60;1.55;;;;;;;28.43;28.39;94544.09;5069508;28;20052;-85
2023/08/07 10:17:27;;;;;;;3.22;1.45;;;;;;;28.60;28.22;94537.88;5086385;28;20044;-85
2023/08/07 10:19:53;;;;;;;2.88;1.70;;;;;;;28.69;28.78;94540.88;5086356;28;20031;-85
2023/08/07 10:22:25;;;;;;;1.73;1.40;;;;;;;28.86;28.39;94533.88;5085176;28;20020;-85
2023/08/07 10:24:50;;;;;;;6.23;1.90;;;;;;;29.07;28.25;94532.34;5085723;28;20106;-85
2023/08/07 10:27:18;;;;;;;2.88;1.17;;;;;;;29.19;28.33;94535.53;5085655;28;20119;-84
2023/08/07 10:29:48;;;;;;;1.50;1.20;;;;;;;29.31;28.12;94539.47;5085890;28;20478;-85
2023/08/07 10:32:15;;;;;;;2.08;1.38;;;;;;;29.47;27.54;94548.63;5086408;28;20028;-85
2023/08/07 10:34:42;;;;;;;3.65;1.10;;;;;;;29.60;27.77;94548.44;5067869;28;20116;-85
2023/08/07 10:37:08;;;;;;;1.10;1.00;;;;;;;29.77;27.32;94539.28;5085995;28;20110;-85
2023/08/07 10:39:34;;;;;;;1.08;0.93;;;;;;;29.96;27.01;94535.97;5088369;28;20045;-85
2023/08/07 10:42:00;;;;;;;1.33;1.10;;;;;;;30.12;26.85;94525.31;5088798;28;20028;-84
2023/08/07 10:44:30;;;;;;;3.35;1.20;;;;;;;30.18;26.46;94527.91;5085071;28;20027;-85
2023/08/07 10:46:57;;;;;;;1.75;1.27;;;;;;;30.27;26.30;94532.94;5085238;28;20036;-84
2023/08/07 10:49:32;;;;;;;3.20;1.35;;;;;;;30.33;26.64;94522.13;5085635;28;20103;-85
2023/08/07 10:51:59;;;;;;;1.80;1.15;;;;;;;30.50;26.68;94524.25;5084569;28;20089;-85
2023/08/07 10:54:25;;;;;;;2.85;1.20;;;;;;;30.49;26.02;94517.84;5085995;28;20020;-85
2023/08/07 10:56:54;;;;;;;3.08;1.10;;;;;;;30.60;25.97;94516.63;5084637;28;20030;-85
2023/08/07 10:59:20;;;;;;;2.08;1.20;;;;;;;30.63;25.92;94512.63;5084986;28;20124;-85
2023/08/07 11:01:51;;;;;;;2.05;1.02;;;;;;;30.57;25.70;94501.53;5085154;28;20024;-85
2023/08/07 11:04:16;;;;;;;1.70;1.20;;;;;;;30.72;25.71;94506.31;5067650;28;20035;-85
2023/08/07 11:06:44;;;;;;;1.98;1.45;;;;;;;30.91;25.69;94509.34;5085613;28;20020;-85
2023/08/07 11:09:10;;;;;;;1.92;1.02;;;;;;;31.11;25.52;94509.53;5085495;28;20040;-85
2023/08/07 11:11:43;;;;;;;0.98;0.88;;;;;;;31.31;25.90;94501.94;5086641;28;20090;-85
2023/08/07 11:14:16;;;;;;;2.20;1.20;;;;;;;31.41;25.09;94491.41;5084420;28;20055;-85
2023/08/07 11:16:42;;;;;;;3.35;1.35;;;;;;;31.28;25.01;94492.50;5068172;28;20028;-85
2023/08/07 11:19:08;;;;;;;2.70;1.77;;;;;;;31.36;25.38;94487.47;5084749;28;20498;-85
2023/08/07 11:21:34;;;;;;;2.70;2.03;;;;;;;31.47;25.54;94480.53;5084015;28;20024;-85
2023/08/07 11:24:01;;;;;;;2.38;1.10;;;;;;;31.72;24.70;94480.41;5068115;28;20028;-85
2023/08/07 11:26:27;;;;;;;3.08;1.67;;;;;;;31.72;25.12;94481.16;5066757;28;20477;-84
2023/08/07 11:28:53;;;;;;;2.50;1.60;;;;;;;31.78;24.73;94482.97;5086711;28;20039;-84
2023/08/07 11:31:19;;;;;;;3.20;1.58;;;;;;;31.70;24.48;94478.13;5083794;28;20422;-84